createdAt,value
2023-03-07T00:00:05.984Z,25.92
2023-03-07T00:02:32.474Z,28.13
2023-03-07T00:04:58.908Z,28.23
2023-03-07T00:07:25.372Z,27.10
2023-03-07T00:09:53.173Z,26.13
2023-03-07T00:12:21.649Z,25.17
2023-03-07T00:14:48.145Z,29.55
2023-03-07T00:17:14.589Z,28.60
2023-03-07T00:19:44.512Z,25.67
2023-03-07T00:22:14.178Z,27.58
2023-03-07T00:24:41.165Z,27.05
2023-03-07T00:27:08.725Z,28.17
2023-03-07T00:29:35.224Z,27.45
2023-03-07T00:32:01.819Z,31.17
2023-03-07T00:34:28.368Z,29.88
2023-03-07T00:36:54.859Z,31.58
2023-03-07T00:39:21.336Z,24.60
2023-03-07T00:41:47.831Z,27.35
2023-03-07T00:44:14.411Z,27.27
2023-03-07T00:46:40.939Z,28.65
2023-03-07T00:49:08.430Z,28.40
2023-03-07T00:51:35.938Z,28.77
2023-03-07T00:54:03.712Z,27.08
2023-03-07T00:56:30.720Z,26.92
2023-03-07T00:58:57.318Z,25.65
2023-03-07T01:01:25.858Z,27.88
2023-03-07T01:03:53.762Z,27.60
2023-03-07T01:06:26.272Z,26.08
2023-03-07T01:08:56.130Z,25.63
2023-03-07T01:11:23.194Z,26.63
2023-03-07T01:13:49.721Z,25.58
2023-03-07T01:16:19.356Z,26.42
2023-03-07T01:18:49.805Z,25.13
2023-03-07T01:21:20.719Z,25.13
2023-03-07T01:23:48.432Z,23.92
2023-03-07T01:26:19.998Z,22.23
2023-03-07T01:28:47.761Z,21.20
2023-03-07T01:31:14.448Z,22.38
2023-03-07T01:33:41.375Z,27.05
2023-03-07T01:36:40.637Z,21.23
2023-03-07T01:39:17.303Z,22.00
2023-03-07T01:41:57.045Z,21.08
2023-03-07T01:44:28.455Z,22.05
2023-03-07T01:46:58.433Z,21.20
2023-03-07T01:49:40.993Z,17.92
2023-03-07T01:52:12.269Z,19.30
2023-03-07T01:54:48.946Z,20.35
2023-03-07T01:57:25.548Z,18.55
2023-03-07T01:59:56.066Z,18.98
2023-03-07T02:02:24.505Z,20.30
2023-03-07T02:04:57.130Z,20.95
2023-03-07T02:07:28.348Z,18.25
2023-03-07T02:09:56.516Z,17.90
2023-03-07T02:12:23.518Z,19.70
2023-03-07T02:14:51.414Z,19.80
2023-03-07T02:17:18.861Z,19.27
2023-03-07T02:19:54.756Z,20.85
2023-03-07T02:22:21.690Z,18.92
2023-03-07T02:25:00.287Z,19.42
2023-03-07T02:27:31.175Z,19.90
2023-03-07T02:29:57.918Z,22.00
2023-03-07T02:32:24.694Z,21.05
2023-03-07T02:34:51.381Z,20.20
2023-03-07T02:37:29.026Z,22.67
2023-03-07T02:39:59.773Z,20.25
2023-03-07T02:42:30.809Z,22.05
2023-03-07T02:45:10.035Z,23.75
2023-03-07T02:47:38.687Z,24.83
2023-03-07T02:50:06.149Z,25.15
2023-03-07T02:52:33.522Z,21.83
2023-03-07T02:55:00.105Z,23.05
2023-03-07T02:57:31.610Z,25.00
2023-03-07T02:59:59.891Z,22.17
2023-03-07T03:02:26.628Z,22.70
2023-03-07T03:04:53.404Z,25.40
2023-03-07T03:07:22.988Z,23.88
2023-03-07T03:09:49.500Z,24.48
2023-03-07T03:12:16.226Z,25.23
2023-03-07T03:14:43.202Z,25.08
2023-03-07T03:17:10.874Z,25.63
2023-03-07T03:19:37.605Z,26.98
2023-03-07T03:22:04.458Z,26.40
2023-03-07T03:24:42.236Z,26.17
2023-03-07T03:27:11.546Z,27.25
2023-03-07T03:29:38.979Z,28.98
2023-03-07T03:32:06.827Z,26.38
2023-03-07T03:34:33.910Z,25.55
2023-03-07T03:37:00.452Z,29.17
2023-03-07T03:39:29.093Z,25.60
2023-03-07T03:41:58.920Z,27.13
2023-03-07T03:44:26.415Z,23.17
2023-03-07T03:46:53.102Z,25.75
2023-03-07T03:49:22.230Z,28.98
2023-03-07T03:51:50.801Z,23.90
2023-03-07T03:54:18.019Z,25.85
2023-03-07T03:56:44.607Z,26.60
2023-03-07T03:59:11.115Z,24.27
2023-03-07T04:01:37.759Z,22.48
2023-03-07T04:04:05.151Z,22.55
2023-03-07T04:06:34.549Z,23.48
2023-03-07T04:09:03.087Z,23.17
2023-03-07T04:11:29.759Z,25.17
2023-03-07T04:13:56.348Z,26.88
2023-03-07T04:16:23.752Z,23.70
2023-03-07T04:18:50.995Z,22.88
2023-03-07T04:21:18.085Z,22.75
2023-03-07T04:23:44.661Z,24.92
2023-03-07T04:26:12.006Z,23.10
2023-03-07T04:28:44.188Z,19.35
2023-03-07T04:31:20.955Z,23.70
2023-03-07T04:33:47.962Z,24.60
2023-03-07T04:36:18.634Z,21.10
2023-03-07T04:38:46.360Z,23.33
2023-03-07T04:41:15.853Z,24.13
2023-03-07T04:43:43.090Z,20.45
2023-03-07T04:46:11.425Z,22.58
2023-03-07T04:48:38.320Z,22.38
2023-03-07T04:51:05.211Z,21.33
2023-03-07T04:53:32.216Z,23.17
2023-03-07T04:56:00.228Z,20.63
2023-03-07T04:58:28.029Z,19.35
2023-03-07T05:00:56.777Z,21.63
2023-03-07T05:03:26.205Z,24.92
2023-03-07T05:05:53.508Z,21.35
2023-03-07T05:08:20.763Z,21.17
2023-03-07T05:10:47.581Z,19.30
2023-03-07T05:13:14.595Z,22.17
2023-03-07T05:15:41.688Z,20.77
2023-03-07T05:18:08.302Z,19.13
2023-03-07T05:20:34.932Z,18.35
2023-03-07T05:23:01.573Z,19.35
2023-03-07T05:25:28.823Z,22.58
2023-03-07T05:27:55.877Z,20.60
2023-03-07T05:30:22.393Z,18.20
2023-03-07T05:32:49.027Z,20.17
2023-03-07T05:35:16.243Z,24.48
2023-03-07T05:37:44.243Z,20.95
2023-03-07T05:40:12.049Z,24.67
2023-03-07T05:42:42.395Z,18.90
2023-03-07T05:45:10.391Z,18.20
2023-03-07T05:47:38.782Z,19.40
2023-03-07T05:50:09.150Z,18.63
2023-03-07T05:52:36.449Z,19.90
2023-03-07T05:55:04.417Z,16.35
2023-03-07T05:57:31.877Z,19.90
2023-03-07T05:59:58.473Z,17.80
2023-03-07T06:02:25.028Z,19.00
2023-03-07T06:04:51.610Z,15.95
2023-03-07T06:07:18.127Z,22.92
2023-03-07T06:09:45.283Z,18.92
2023-03-07T06:12:12.648Z,18.15
2023-03-07T06:14:39.195Z,22.23
2023-03-07T06:17:06.155Z,22.33
2023-03-07T06:19:34.106Z,22.15
2023-03-07T06:22:00.837Z,23.95
2023-03-07T06:24:30.350Z,16.02
2023-03-07T06:26:57.672Z,16.20
2023-03-07T06:29:25.310Z,21.77
2023-03-07T06:31:52.144Z,20.50
2023-03-07T06:34:18.792Z,19.30
2023-03-07T06:36:48.483Z,16.27
2023-03-07T06:39:20.849Z,17.70
2023-03-07T06:41:50.240Z,17.95
2023-03-07T06:44:26.280Z,14.10
2023-03-07T06:46:53.137Z,14.38
2023-03-07T06:49:21.263Z,14.52
2023-03-07T06:51:48.952Z,14.20
2023-03-07T06:54:16.310Z,15.57
2023-03-07T06:56:45.329Z,17.55
2023-03-07T06:59:15.913Z,14.75
2023-03-07T07:01:42.505Z,16.13
2023-03-07T07:04:11.360Z,19.90
2023-03-07T07:06:40.400Z,14.57
2023-03-07T07:09:06.956Z,14.18
2023-03-07T07:11:37.583Z,15.20
2023-03-07T07:14:05.728Z,15.25
2023-03-07T07:16:33.833Z,15.40
2023-03-07T07:19:00.602Z,17.45
2023-03-07T07:21:27.461Z,16.58
2023-03-07T07:23:57.406Z,15.18
2023-03-07T07:26:26.322Z,14.50
2023-03-07T07:28:53.517Z,12.55
2023-03-07T07:31:20.009Z,17.50
2023-03-07T07:33:46.584Z,13.88
2023-03-07T07:36:14.935Z,13.20
2023-03-07T07:38:41.463Z,16.73
2023-03-07T07:41:08.090Z,16.92
2023-03-07T07:43:34.849Z,14.88
2023-03-07T07:46:14.261Z,14.57
2023-03-07T07:48:40.964Z,13.35
2023-03-07T07:51:07.608Z,14.00
2023-03-07T07:53:36.692Z,12.98
2023-03-07T07:56:03.704Z,13.77
2023-03-07T07:58:30.281Z,12.88
2023-03-07T08:00:56.756Z,15.05
2023-03-07T08:03:23.311Z,14.38
2023-03-07T08:05:50.979Z,12.43
2023-03-07T08:08:18.948Z,13.82
2023-03-07T08:10:48.811Z,14.10
2023-03-07T08:13:17.765Z,13.45
2023-03-07T08:15:44.348Z,15.77
2023-03-07T08:18:11.094Z,15.88
2023-03-07T08:20:38.880Z,13.63
2023-03-07T08:23:05.511Z,16.65
2023-03-07T08:25:32.242Z,15.90
2023-03-07T08:27:59.227Z,13.30
2023-03-07T08:30:27.979Z,15.35
2023-03-07T08:32:55.384Z,11.98
2023-03-07T08:35:23.122Z,13.07
2023-03-07T08:37:54.266Z,15.57
2023-03-07T08:40:21.272Z,13.70
2023-03-07T08:42:47.752Z,11.90
2023-03-07T08:45:15.233Z,12.52
2023-03-07T08:47:41.692Z,12.30
2023-03-07T08:50:08.985Z,12.10
2023-03-07T08:52:35.630Z,13.35
2023-03-07T08:55:02.107Z,11.85
2023-03-07T08:57:28.578Z,12.32
2023-03-07T08:59:55.098Z,12.57
2023-03-07T09:02:21.596Z,12.75
2023-03-07T09:04:48.209Z,13.70
2023-03-07T09:07:14.703Z,13.73
2023-03-07T09:09:41.274Z,13.02
2023-03-07T09:12:07.880Z,15.93
2023-03-07T09:14:34.455Z,13.57
2023-03-07T09:17:00.877Z,13.82
2023-03-07T09:19:27.398Z,13.95
2023-03-07T09:21:53.864Z,12.38
2023-03-07T09:24:20.355Z,12.45
2023-03-07T09:26:46.861Z,13.38
2023-03-07T09:29:13.358Z,12.13
2023-03-07T09:31:41.406Z,12.23
2023-03-07T09:34:07.971Z,11.25
2023-03-07T09:36:34.510Z,12.20
2023-03-07T09:39:00.998Z,13.77
2023-03-07T09:42:02.940Z,10.20
2023-03-07T09:44:32.863Z,11.63
2023-03-07T09:47:25.298Z,12.70
2023-03-07T09:49:53.315Z,13.00
2023-03-07T09:52:27.449Z,12.75
2023-03-07T09:57:34.537Z,12.25
2023-03-07T10:00:18.464Z,14.05
2023-03-07T10:03:00.437Z,13.48
2023-03-07T10:05:29.679Z,13.48
2023-03-07T10:07:56.371Z,12.20
2023-03-07T10:10:33.030Z,12.43
2023-03-07T10:13:08.476Z,11.63
2023-03-07T10:16:00.975Z,12.38
2023-03-07T10:18:31.702Z,12.52
2023-03-07T10:21:27.954Z,14.88
2023-03-07T10:24:23.146Z,15.30
2023-03-07T10:26:59.904Z,14.23
2023-03-07T10:29:33.083Z,15.65
2023-03-07T10:32:18.852Z,12.00
2023-03-07T10:34:46.325Z,15.10
2023-03-07T10:37:18.342Z,11.07
2023-03-07T10:39:56.356Z,13.35
2023-03-07T10:42:26.698Z,13.85
2023-03-07T10:44:53.754Z,13.95
2023-03-07T10:47:25.565Z,12.25
2023-03-07T10:50:02.360Z,15.20
2023-03-07T10:52:40.014Z,12.60
2023-03-07T10:55:29.432Z,14.05
2023-03-07T10:58:22.794Z,12.73
2023-03-07T11:01:08.082Z,15.65
2023-03-07T11:03:53.538Z,16.42
2023-03-07T11:06:27.401Z,16.20
2023-03-07T11:08:53.896Z,13.75
2023-03-07T11:11:26.406Z,12.73
2023-03-07T11:14:15.696Z,18.38
2023-03-07T11:16:56.698Z,14.43
2023-03-07T11:19:32.145Z,17.80
2023-03-07T11:22:00.654Z,19.23
2023-03-07T11:24:36.693Z,13.18
2023-03-07T11:27:04.089Z,11.13
2023-03-07T11:29:33.707Z,15.57
2023-03-07T11:32:13.800Z,14.82
2023-03-07T11:34:48.657Z,16.05
2023-03-07T11:37:40.163Z,12.45
2023-03-07T11:40:28.433Z,13.80
2023-03-07T11:43:05.567Z,15.30
2023-03-07T11:45:54.319Z,16.20
2023-03-07T11:48:47.615Z,13.23
2023-03-07T11:51:35.903Z,18.85
2023-03-07T11:54:28.922Z,17.30
2023-03-07T11:57:03.504Z,16.20
2023-03-07T11:59:56.454Z,14.05
2023-03-07T12:02:49.077Z,16.58
2023-03-07T12:05:44.892Z,16.08
2023-03-07T12:08:45.515Z,13.25
2023-03-07T12:11:28.157Z,13.95
2023-03-07T12:14:27.133Z,13.45
2023-03-07T12:17:17.772Z,13.45
2023-03-07T12:20:16.031Z,13.48
2023-03-07T12:23:12.455Z,14.25
2023-03-07T12:25:46.106Z,16.60
2023-03-07T12:28:18.745Z,16.65
2023-03-07T12:30:58.288Z,20.70
2023-03-07T12:33:56.871Z,20.08
2023-03-07T12:36:55.682Z,15.10
2023-03-07T12:39:29.854Z,16.15
2023-03-07T12:42:15.386Z,14.40
2023-03-07T12:44:55.405Z,14.82
2023-03-07T12:48:03.449Z,17.77
2023-03-07T12:50:50.350Z,15.10
2023-03-07T12:53:49.761Z,14.73
2023-03-07T12:56:31.117Z,10.95
2023-03-07T12:59:04.567Z,16.48
2023-03-07T13:01:43.633Z,12.52
2023-03-07T13:04:43.354Z,14.18
2023-03-07T13:07:21.183Z,14.25
2023-03-07T13:09:50.692Z,15.93
2023-03-07T13:12:20.021Z,14.10
2023-03-07T13:14:48.982Z,12.27
2023-03-07T13:17:30.902Z,13.65
2023-03-07T13:20:15.829Z,13.85
2023-03-07T13:22:42.891Z,16.67
2023-03-07T13:25:35.917Z,12.80
2023-03-07T13:28:04.296Z,13.60
2023-03-07T13:30:34.588Z,12.05
2023-03-07T13:33:24.047Z,14.60
2023-03-07T13:35:58.429Z,13.23
2023-03-07T13:38:44.294Z,13.93
2023-03-07T13:41:12.859Z,15.15
2023-03-07T13:43:45.313Z,12.70
2023-03-07T13:46:23.825Z,14.30
2023-03-07T13:48:53.701Z,12.13
2023-03-07T13:51:20.596Z,14.20
2023-03-07T13:53:50.897Z,13.82
2023-03-07T13:56:17.657Z,13.93
2023-03-07T13:58:58.714Z,14.25
2023-03-07T14:01:32.996Z,15.13
2023-03-07T14:04:11.019Z,13.07
2023-03-07T14:06:41.624Z,14.32
2023-03-07T14:09:20.172Z,14.23
2023-03-07T14:11:58.756Z,14.50
2023-03-07T14:14:49.916Z,13.20
2023-03-07T14:17:38.232Z,12.23
2023-03-07T14:20:42.649Z,10.40
2023-03-07T14:23:31.040Z,12.50
2023-03-07T14:26:15.927Z,11.57
2023-03-07T14:28:49.334Z,13.30
2023-03-07T14:31:27.496Z,10.32
2023-03-07T14:33:54.697Z,12.80
2023-03-07T14:36:23.923Z,13.57
2023-03-07T14:38:54.950Z,12.45
2023-03-07T14:41:55.035Z,19.45
2023-03-07T14:44:31.401Z,14.48
2023-03-07T14:47:15.336Z,18.65
2023-03-07T14:49:59.794Z,12.85
2023-03-07T14:55:03.892Z,13.02
2023-03-07T14:57:37.556Z,13.13
2023-03-07T15:00:07.249Z,13.65
2023-03-07T15:02:33.843Z,13.23
2023-03-07T15:05:00.356Z,15.70
2023-03-07T15:07:26.797Z,15.27
2023-03-07T15:09:53.977Z,13.70
2023-03-07T15:12:25.669Z,12.43
2023-03-07T15:14:53.162Z,13.70
2023-03-07T15:17:35.103Z,11.70
2023-03-07T15:20:14.756Z,16.38
2023-03-07T15:22:42.267Z,14.25
2023-03-07T15:25:25.780Z,11.95
2023-03-07T15:28:01.659Z,11.45
2023-03-07T15:30:32.454Z,15.30
2023-03-07T15:33:19.980Z,13.75
2023-03-07T15:36:11.730Z,13.07
2023-03-07T15:39:23.577Z,13.65
2023-03-07T15:42:04.064Z,13.52
2023-03-07T15:44:30.755Z,13.82
2023-03-07T15:47:00.451Z,10.25
2023-03-07T15:49:37.593Z,12.48
2023-03-07T15:52:04.593Z,11.52
2023-03-07T15:54:51.747Z,13.65
2023-03-07T15:57:24.457Z,14.25
2023-03-07T16:00:00.119Z,10.95
2023-03-07T16:02:32.606Z,11.85
2023-03-07T16:05:00.830Z,13.55
2023-03-07T16:07:27.745Z,10.63
2023-03-07T16:09:54.382Z,11.45
2023-03-07T16:12:22.927Z,10.88
2023-03-07T16:14:51.543Z,14.77
2023-03-07T16:17:37.142Z,15.13
2023-03-07T16:20:04.840Z,13.88
2023-03-07T16:22:32.096Z,16.60
2023-03-07T16:24:58.546Z,16.35
2023-03-07T16:27:27.815Z,19.38
2023-03-07T16:29:54.495Z,14.63
2023-03-07T16:32:22.701Z,14.48
2023-03-07T16:34:49.536Z,15.77
2023-03-07T16:37:16.249Z,13.85
2023-03-07T16:39:42.891Z,11.18
2023-03-07T16:42:22.860Z,17.05
2023-03-07T16:44:50.979Z,11.23
2023-03-07T16:47:17.956Z,11.40
2023-03-07T16:49:46.575Z,12.35
2023-03-07T16:52:13.845Z,14.02
2023-03-07T16:54:40.591Z,13.80
2023-03-07T16:57:14.585Z,10.38
2023-03-07T16:59:45.419Z,9.40
2023-03-07T17:02:16.143Z,13.02
2023-03-07T17:04:44.242Z,13.10
2023-03-07T17:07:23.502Z,9.65
2023-03-07T17:09:50.543Z,10.98
2023-03-07T17:12:20.040Z,10.35
2023-03-07T17:14:46.592Z,12.02
2023-03-07T17:17:30.209Z,9.65
2023-03-07T17:19:56.836Z,9.73
2023-03-07T17:22:23.357Z,8.95
2023-03-07T17:24:49.928Z,11.05
2023-03-07T17:27:17.536Z,9.05
2023-03-07T17:29:47.988Z,13.73
2023-03-07T17:32:14.483Z,13.30
2023-03-07T17:34:41.024Z,10.45
2023-03-07T17:37:08.121Z,11.30
2023-03-07T17:39:35.070Z,10.50
2023-03-07T17:42:02.234Z,10.88
2023-03-07T17:44:29.165Z,13.27
2023-03-07T17:46:56.374Z,10.48
2023-03-07T17:49:23.885Z,11.45
2023-03-07T17:51:51.975Z,10.60
2023-03-07T17:54:18.636Z,11.35
2023-03-07T17:56:45.471Z,12.40
2023-03-07T17:59:12.021Z,12.55
2023-03-07T18:01:38.490Z,10.27
2023-03-07T18:04:06.237Z,11.98
2023-03-07T18:06:34.019Z,11.43
2023-03-07T18:09:01.559Z,13.30
2023-03-07T18:11:28.258Z,16.10
2023-03-07T18:13:54.721Z,11.27
2023-03-07T18:16:21.287Z,9.68
2023-03-07T18:18:58.693Z,9.50
2023-03-07T18:21:26.478Z,14.32
2023-03-07T18:23:53.771Z,12.15
2023-03-07T18:26:21.086Z,13.50
2023-03-07T18:28:50.145Z,10.80
2023-03-07T18:31:22.857Z,10.50
2023-03-07T18:33:52.266Z,11.75
2023-03-07T18:36:21.297Z,9.88
2023-03-07T18:38:48.520Z,10.98
2023-03-07T18:41:17.697Z,9.07
2023-03-07T18:43:44.200Z,12.18
2023-03-07T18:46:13.536Z,14.45
2023-03-07T18:48:40.468Z,13.25
2023-03-07T18:51:10.262Z,12.35
2023-03-07T18:53:38.892Z,11.77
2023-03-07T18:56:08.602Z,12.05
2023-03-07T18:58:35.465Z,14.70
2023-03-07T19:01:24.114Z,13.75
2023-03-07T19:03:52.443Z,13.13
2023-03-07T19:06:21.531Z,13.70
2023-03-07T19:08:47.972Z,11.80
2023-03-07T19:11:15.407Z,11.30
2023-03-07T19:13:43.082Z,22.67
2023-03-07T19:16:15.720Z,12.05
2023-03-07T19:18:43.364Z,15.48
2023-03-07T19:21:15.560Z,15.15
2023-03-07T19:23:42.075Z,14.82
2023-03-07T19:26:12.039Z,11.93
2023-03-07T19:28:39.137Z,13.63
2023-03-07T19:31:17.330Z,12.95
2023-03-07T19:33:45.121Z,13.20
2023-03-07T19:36:16.163Z,15.45
2023-03-07T19:38:43.429Z,12.40
2023-03-07T19:41:13.541Z,13.15
2023-03-07T19:43:40.386Z,13.93
2023-03-07T19:46:09.464Z,12.85
2023-03-07T19:48:36.524Z,12.23
2023-03-07T19:51:03.874Z,13.80
2023-03-07T19:53:30.748Z,11.55
2023-03-07T19:55:57.259Z,13.13
2023-03-07T19:58:23.683Z,12.27
2023-03-07T20:00:50.179Z,14.43
2023-03-07T20:03:19.273Z,11.43
2023-03-07T20:05:50.738Z,11.90
2023-03-07T20:08:17.279Z,10.82
2023-03-07T20:10:44.725Z,10.48
2023-03-07T20:13:13.471Z,12.32
2023-03-07T20:15:40.023Z,13.13
2023-03-07T20:18:06.540Z,11.18
2023-03-07T20:20:36.148Z,11.48
2023-03-07T20:23:02.698Z,13.63
2023-03-07T20:25:30.258Z,12.45
2023-03-07T20:27:57.809Z,10.32
2023-03-07T20:30:24.591Z,12.43
2023-03-07T20:32:51.088Z,14.48
2023-03-07T20:35:17.935Z,12.38
2023-03-07T20:37:44.423Z,11.77
2023-03-07T20:40:11.695Z,10.30
2023-03-07T20:42:38.233Z,13.85
2023-03-07T20:45:05.213Z,11.60
2023-03-07T20:47:36.089Z,14.32
2023-03-07T20:50:02.568Z,13.05
2023-03-07T20:52:29.056Z,12.38
2023-03-07T20:54:55.540Z,19.33
2023-03-07T20:57:22.016Z,10.95
2023-03-07T20:59:48.981Z,10.65
2023-03-07T21:02:15.455Z,13.52
2023-03-07T21:04:41.953Z,12.85
2023-03-07T21:07:08.670Z,15.20
2023-03-07T21:09:35.177Z,11.10
2023-03-07T21:12:01.702Z,11.45
2023-03-07T21:14:28.228Z,13.35
2023-03-07T21:16:54.755Z,12.55
2023-03-07T21:19:21.264Z,11.93
2023-03-07T21:21:47.803Z,12.32
2023-03-07T21:24:15.482Z,12.13
2023-03-07T21:26:42.454Z,14.00
2023-03-07T21:29:10.645Z,12.20
2023-03-07T21:31:37.530Z,15.38
2023-03-07T21:34:11.118Z,13.38
2023-03-07T21:36:37.647Z,14.77
2023-03-07T21:39:07.663Z,10.70
2023-03-07T21:41:34.767Z,11.70
2023-03-07T21:44:01.732Z,12.57
2023-03-07T21:46:28.613Z,13.05
2023-03-07T21:48:58.671Z,11.68
2023-03-07T21:51:25.271Z,11.27
2023-03-07T21:53:51.825Z,11.63
2023-03-07T21:56:18.399Z,12.85
2023-03-07T21:58:49.426Z,13.57
2023-03-07T22:01:19.194Z,11.80
2023-03-07T22:03:47.335Z,11.45
2023-03-07T22:06:15.532Z,11.68
2023-03-07T22:08:42.559Z,11.38
2023-03-07T22:11:10.865Z,11.75
2023-03-07T22:13:39.632Z,12.55
2023-03-07T22:16:09.856Z,12.13
2023-03-07T22:18:36.796Z,11.48
2023-03-07T22:21:13.821Z,11.85
2023-03-07T22:23:41.361Z,10.88
2023-03-07T22:26:09.658Z,13.68
2023-03-07T22:28:37.224Z,14.95
2023-03-07T22:31:09.261Z,12.93
2023-03-07T22:33:35.973Z,14.15
2023-03-07T22:36:06.050Z,11.60
2023-03-07T22:38:32.723Z,10.77
2023-03-07T22:41:05.027Z,11.75
2023-03-07T22:43:33.492Z,13.77
2023-03-07T22:46:00.410Z,12.88
2023-03-07T22:48:27.776Z,12.23
2023-03-07T22:50:54.595Z,10.32
2023-03-07T22:53:21.534Z,11.95
2023-03-07T22:55:48.530Z,11.65
2023-03-07T22:58:15.031Z,12.52
2023-03-07T23:00:42.989Z,12.98
2023-03-07T23:03:10.207Z,11.20
2023-03-07T23:05:36.827Z,13.65
2023-03-07T23:08:03.996Z,12.38
2023-03-07T23:10:31.785Z,12.52
2023-03-07T23:12:58.286Z,13.23
2023-03-07T23:15:25.155Z,10.70
2023-03-07T23:17:51.856Z,12.50
2023-03-07T23:20:19.660Z,12.48
2023-03-07T23:22:46.756Z,12.10
2023-03-07T23:25:15.036Z,11.63
2023-03-07T23:27:42.045Z,11.30
2023-03-07T23:30:09.688Z,10.60
2023-03-07T23:32:36.541Z,12.95
2023-03-07T23:35:03.944Z,12.60
2023-03-07T23:37:30.526Z,13.45
2023-03-07T23:39:58.433Z,13.45
2023-03-07T23:42:24.971Z,13.30
2023-03-07T23:44:51.537Z,12.93
2023-03-07T23:47:18.018Z,12.20
2023-03-07T23:49:44.573Z,16.95
2023-03-07T23:52:11.067Z,12.38
2023-03-07T23:54:37.593Z,11.40
2023-03-07T23:57:04.091Z,11.98
2023-03-07T23:59:30.648Z,12.88
